KBJI/BJI METAR and TAF weather

Enter ICAO airport designator
Station Type Date Time Source
KBJI METAR 2018/01/24 07:15 UTC NOAA

KBJI 240715Z AUTO 22004KT 10SM OVC010 M07/M08 A3012 RMK AO2 T10751084


Station Type Date Time Source
KBJI Decoded METAR 2018/01/24 07:15 UTC NOAA

Bemidji, MN, United States (KBJI) 47-30N 094-56W 420M
Jan 24, 2018 - 02:15 AM EST / 2018.01.24 0715 UTC
Wind: from the SW (220 degrees) at 5 MPH (4 KT):0
Visibility: 10 mile(s):0
Sky conditions: overcast
Temperature: 18.5 F (-7.5 C)
Windchill: 10 F (-12 C):1
Dew Point: 16.9 F (-8.4 C)
Relative Humidity: 93%
Pressure (altimeter): 30.12 in. Hg (1019 hPa)
ob: KBJI 240715Z AUTO 22004KT 10SM OVC010 M07/M08 A3012 RMK AO2 T10751084
cycle: 7

Station Type Date Time Source
KBJI TAF 2018/01/24 06:33 UTC NOAA

TAF KBJI 240531Z 2406/2506 00000KT P6SM OVC010
TEMPO 2406/2410 4SM -SN BR
FM241000 VRB03KT P6SM BKN006
FM241700 VRB03KT P6SM BKN008
FM250200 VRB03KT P6SM BKN008


Example: see airport list